createdAt,value
2022-10-02T00:00:55.052Z,10.09
2022-10-02T00:03:37.889Z,10.11
2022-10-02T00:06:24.963Z,10.11
2022-10-02T00:08:59.895Z,10.12
2022-10-02T00:11:44.131Z,10.15
2022-10-02T00:14:16.981Z,10.15
2022-10-02T00:16:52.154Z,10.14
2022-10-02T00:19:20.512Z,10.10
2022-10-02T00:22:06.592Z,10.10
2022-10-02T00:24:46.602Z,10.07
2022-10-02T00:27:27.054Z,10.09
2022-10-02T00:30:00.192Z,10.09
2022-10-02T00:32:41.498Z,10.08
2022-10-02T00:35:16.151Z,10.09
2022-10-02T00:38:03.045Z,10.07
2022-10-02T00:40:46.140Z,10.06
2022-10-02T00:43:17.417Z,10.06
2022-10-02T00:45:51.554Z,10.09
2022-10-02T00:48:19.778Z,10.12
2022-10-02T00:51:13.146Z,10.11
2022-10-02T00:53:49.795Z,10.11
2022-10-02T00:56:42.047Z,10.10
2022-10-02T00:59:37.932Z,10.11
2022-10-02T01:05:50.011Z,10.09
2022-10-02T01:08:19.550Z,10.09
2022-10-02T01:10:48.197Z,10.12
2022-10-02T01:13:16.281Z,10.12
2022-10-02T01:15:51.449Z,10.13
2022-10-02T01:18:19.659Z,10.16
2022-10-02T01:20:54.832Z,10.16
2022-10-02T01:23:53.744Z,10.16
2022-10-02T01:26:21.903Z,10.17
2022-10-02T01:28:50.113Z,10.17
2022-10-02T01:31:18.420Z,10.17
2022-10-02T01:33:49.905Z,10.16
2022-10-02T01:36:18.350Z,10.14
2022-10-02T01:38:49.377Z,10.14
2022-10-02T01:41:17.483Z,10.14
2022-10-02T01:43:50.844Z,10.14
2022-10-02T01:46:31.975Z,10.12
2022-10-02T01:49:21.556Z,10.12
2022-10-02T01:52:04.808Z,10.13
2022-10-02T01:55:11.233Z,10.14
2022-10-02T01:57:59.835Z,10.16
2022-10-02T02:00:36.935Z,10.18
2022-10-02T02:03:14.872Z,10.20
2022-10-02T02:05:56.706Z,10.22
2022-10-02T02:08:30.940Z,10.22
2022-10-02T02:11:11.654Z,10.23
2022-10-02T02:13:45.887Z,10.25
2022-10-02T02:16:36.530Z,10.26
2022-10-02T02:19:31.301Z,10.27
2022-10-02T02:22:04.312Z,10.26
2022-10-02T02:24:44.708Z,10.26
2022-10-02T02:27:19.670Z,10.26
2022-10-02T02:29:52.631Z,10.27
2022-10-02T02:32:28.307Z,10.26
2022-10-02T02:35:20.798Z,10.26
2022-10-02T02:37:52.659Z,10.26
2022-10-02T02:40:26.249Z,10.26
2022-10-02T02:43:03.496Z,10.28
2022-10-02T02:45:45.816Z,10.27
2022-10-02T02:48:25.868Z,10.27
2022-10-02T02:51:03.922Z,10.28
2022-10-02T02:53:35.309Z,10.29
2022-10-02T02:56:06.850Z,10.31
2022-10-02T02:58:51.541Z,10.31
2022-10-02T03:01:19.987Z,10.30
2022-10-02T03:03:48.496Z,10.29
2022-10-02T03:06:17.496Z,10.29
2022-10-02T03:08:47.814Z,10.30
2022-10-02T03:11:30.977Z,10.28
2022-10-02T03:14:20.661Z,10.26
2022-10-02T03:17:07.427Z,10.26
2022-10-02T03:19:41.781Z,10.25
2022-10-02T03:22:24.106Z,10.24
2022-10-02T03:24:54.922Z,10.25
2022-10-02T03:27:52.110Z,10.26
2022-10-02T03:30:24.508Z,10.25
2022-10-02T03:32:53.840Z,10.25
2022-10-02T03:35:25.291Z,10.25
2022-10-02T03:37:58.050Z,10.25
2022-10-02T03:40:27.503Z,10.24
2022-10-02T03:42:58.528Z,10.23
2022-10-02T03:45:49.948Z,10.25
2022-10-02T03:48:18.186Z,10.26
2022-10-02T03:50:46.805Z,10.27
2022-10-02T03:53:17.371Z,10.28
2022-10-02T03:55:52.549Z,10.28
2022-10-02T03:58:20.892Z,10.27
2022-10-02T04:01:04.466Z,10.26
2022-10-02T04:03:36.949Z,10.25
2022-10-02T04:06:23.569Z,10.24
2022-10-02T04:08:59.915Z,10.26
2022-10-02T04:11:35.548Z,10.26
2022-10-02T04:14:42.833Z,10.27
2022-10-02T04:17:34.377Z,10.23
2022-10-02T04:20:18.665Z,10.23
2022-10-02T04:22:53.455Z,10.23
2022-10-02T04:25:25.555Z,10.23
2022-10-02T04:27:59.115Z,10.23
2022-10-02T04:30:27.518Z,10.23
2022-10-02T04:33:05.925Z,10.25
2022-10-02T04:35:48.939Z,10.25
2022-10-02T04:38:34.366Z,10.25
2022-10-02T04:41:20.574Z,10.23
2022-10-02T04:44:06.546Z,10.22
2022-10-02T04:46:40.611Z,10.21
2022-10-02T04:49:50.425Z,10.18
2022-10-02T04:52:32.695Z,10.16
2022-10-02T04:55:07.431Z,10.15
2022-10-02T04:57:45.046Z,10.15
2022-10-02T05:00:21.995Z,10.14
2022-10-02T05:02:55.715Z,10.14
2022-10-02T05:05:54.584Z,10.14
2022-10-02T05:08:50.331Z,10.14
2022-10-02T05:11:33.179Z,10.15
2022-10-02T05:14:09.301Z,10.14
2022-10-02T05:17:05.228Z,10.13
2022-10-02T05:19:51.062Z,10.11
2022-10-02T05:22:37.548Z,10.11
2022-10-02T05:25:30.144Z,10.14
2022-10-02T05:28:16.853Z,10.15
2022-10-02T05:31:04.321Z,10.17
2022-10-02T05:33:39.140Z,10.18
2022-10-02T05:36:19.376Z,10.19
2022-10-02T05:39:07.536Z,10.19
2022-10-02T05:41:44.395Z,10.19
2022-10-02T05:44:18.427Z,10.19
2022-10-02T05:47:01.767Z,10.22
2022-10-02T05:49:36.092Z,10.23
2022-10-02T05:52:11.884Z,10.23
2022-10-02T05:55:16.948Z,10.23
2022-10-02T05:57:54.172Z,10.26
2022-10-02T06:00:48.179Z,10.28
2022-10-02T06:03:35.263Z,10.30
2022-10-02T06:06:15.746Z,10.30
2022-10-02T06:08:52.005Z,10.29
2022-10-02T06:11:54.735Z,10.29
2022-10-02T06:14:39.609Z,10.34
2022-10-02T06:17:16.580Z,10.33
2022-10-02T06:20:03.388Z,10.33
2022-10-02T06:22:52.187Z,10.32
2022-10-02T06:25:28.963Z,10.34
2022-10-02T06:28:09.789Z,10.34
2022-10-02T06:30:41.889Z,10.35
2022-10-02T06:33:19.304Z,10.34
2022-10-02T06:35:53.219Z,10.36
2022-10-02T06:38:52.156Z,10.36
2022-10-02T06:41:33.640Z,10.38
2022-10-02T06:44:26.817Z,10.38
2022-10-02T06:47:22.303Z,10.38
2022-10-02T06:50:13.420Z,10.41
2022-10-02T06:53:12.051Z,10.42
2022-10-02T06:56:05.733Z,10.46
2022-10-02T06:58:55.642Z,10.51
2022-10-02T07:01:47.162Z,10.58
2022-10-02T07:04:21.345Z,10.67
2022-10-02T07:07:12.899Z,10.73
2022-10-02T07:10:14.552Z,10.75
2022-10-02T07:12:57.882Z,10.75
2022-10-02T07:15:57.206Z,10.78
2022-10-02T07:18:49.469Z,10.82
2022-10-02T07:21:41.974Z,10.89
2022-10-02T07:24:51.882Z,10.96
2022-10-02T07:27:23.645Z,11.00
2022-10-02T07:29:52.062Z,11.00
2022-10-02T07:32:38.427Z,11.04
2022-10-02T07:35:33.937Z,11.07
2022-10-02T07:38:21.148Z,11.10
2022-10-02T07:41:07.690Z,11.13
2022-10-02T07:43:52.234Z,11.19
2022-10-02T07:46:54.778Z,11.22
2022-10-02T07:49:41.700Z,11.20
2022-10-02T07:52:28.019Z,11.16
2022-10-02T07:55:14.723Z,11.18
2022-10-02T07:58:08.667Z,11.23
2022-10-02T08:00:52.962Z,11.28
2022-10-02T08:03:25.974Z,11.37
2022-10-02T08:05:56.106Z,11.46
2022-10-02T08:08:55.606Z,11.56
2022-10-02T08:11:30.399Z,11.64
2022-10-02T08:14:18.271Z,11.68
2022-10-02T08:16:50.808Z,11.75
2022-10-02T08:19:39.570Z,11.79
2022-10-02T08:22:22.656Z,11.82
2022-10-02T08:25:28.582Z,11.86
2022-10-02T08:28:02.299Z,11.93
2022-10-02T08:30:30.548Z,12.07
2022-10-02T08:32:59.133Z,12.22
2022-10-02T08:35:47.907Z,12.33
2022-10-02T08:38:33.745Z,12.41
2022-10-02T08:41:05.163Z,12.57
2022-10-02T08:43:39.217Z,12.82
2022-10-02T08:46:29.181Z,12.91
2022-10-02T08:49:33.806Z,12.89
2022-10-02T08:52:11.044Z,12.83
2022-10-02T08:54:49.639Z,12.84
2022-10-02T08:57:36.143Z,12.96
2022-10-02T09:00:33.976Z,12.97
2022-10-02T09:03:31.141Z,13.04
2022-10-02T09:06:38.806Z,13.06
2022-10-02T09:09:47.976Z,13.12
2022-10-02T09:13:13.690Z,13.18
2022-10-02T09:15:48.379Z,13.21
2022-10-02T09:18:18.351Z,13.17
2022-10-02T09:20:55.211Z,13.07
2022-10-02T09:24:00.532Z,13.02
2022-10-02T09:26:56.562Z,12.93
2022-10-02T09:30:04.284Z,12.88
2022-10-02T09:32:47.559Z,12.87
2022-10-02T09:35:37.183Z,12.84
2022-10-02T09:38:59.688Z,12.83
2022-10-02T09:41:50.180Z,12.84
2022-10-02T09:45:11.837Z,12.83
2022-10-02T09:48:11.108Z,12.76
2022-10-02T09:50:47.877Z,12.70
2022-10-02T09:53:40.237Z,12.67
2022-10-02T09:56:23.587Z,12.69
2022-10-02T09:59:09.988Z,12.71
2022-10-02T10:02:15.867Z,12.69
2022-10-02T10:05:08.962Z,12.72
2022-10-02T10:07:58.657Z,12.86
2022-10-02T10:10:50.202Z,13.10
2022-10-02T10:13:49.576Z,13.28
2022-10-02T10:17:05.759Z,13.42
2022-10-02T10:20:19.887Z,13.59
2022-10-02T10:23:18.744Z,13.79
2022-10-02T10:26:15.400Z,14.04
2022-10-02T10:28:46.314Z,14.16
2022-10-02T10:31:43.820Z,14.32
2022-10-02T10:34:30.298Z,14.40
2022-10-02T10:37:26.904Z,14.42
2022-10-02T10:40:37.192Z,14.44
2022-10-02T10:43:44.917Z,14.56
2022-10-02T10:46:21.558Z,14.63
2022-10-02T10:49:10.518Z,14.61
2022-10-02T10:51:51.681Z,14.53
2022-10-02T10:54:44.861Z,14.54
2022-10-02T10:57:26.038Z,14.52
2022-10-02T11:00:30.941Z,14.53
2022-10-02T11:03:40.212Z,14.51
2022-10-02T11:06:23.232Z,14.53
2022-10-02T11:08:58.523Z,14.66
2022-10-02T11:11:31.670Z,14.85
2022-10-02T11:14:41.280Z,14.94
2022-10-02T11:17:54.237Z,15.14
2022-10-02T11:20:45.843Z,15.10
2022-10-02T11:23:34.030Z,15.00
2022-10-02T11:26:16.727Z,15.02
2022-10-02T11:29:19.957Z,14.91
2022-10-02T11:31:53.801Z,14.74
2022-10-02T11:34:59.579Z,14.58
2022-10-02T11:38:04.115Z,14.27
2022-10-02T11:40:54.456Z,14.03
2022-10-02T11:43:44.287Z,13.88
2022-10-02T11:46:19.443Z,13.88
2022-10-02T11:49:12.680Z,13.98
2022-10-02T11:51:57.140Z,14.16
2022-10-02T11:54:45.018Z,14.25
2022-10-02T11:57:35.370Z,14.40
2022-10-02T12:00:08.798Z,14.58
2022-10-02T12:03:10.894Z,14.66
2022-10-02T12:05:53.547Z,14.51
2022-10-02T12:09:02.455Z,14.47
2022-10-02T12:12:06.419Z,14.38
2022-10-02T12:14:35.087Z,14.19
2022-10-02T12:17:24.605Z,14.12
2022-10-02T12:20:24.062Z,14.08
2022-10-02T12:23:22.888Z,14.02
2022-10-02T12:26:33.217Z,13.93
2022-10-02T12:29:10.245Z,13.92
2022-10-02T12:31:54.693Z,13.94
2022-10-02T12:34:44.583Z,14.01
2022-10-02T12:37:25.317Z,14.15
2022-10-02T12:40:06.397Z,14.21
2022-10-02T12:42:46.676Z,14.27
2022-10-02T12:45:38.604Z,14.48
2022-10-02T12:48:15.184Z,14.72
2022-10-02T12:51:05.984Z,14.75
2022-10-02T12:53:52.783Z,14.84
2022-10-02T12:56:36.345Z,14.93
2022-10-02T12:59:10.754Z,15.00
2022-10-02T13:02:12.629Z,14.91
2022-10-02T13:05:23.447Z,14.88
2022-10-02T13:08:10.400Z,15.07
2022-10-02T13:11:04.015Z,15.21
2022-10-02T13:14:00.698Z,15.33
2022-10-02T13:16:48.806Z,15.37
2022-10-02T13:19:31.151Z,15.43
2022-10-02T13:22:20.263Z,15.46
2022-10-02T13:25:00.557Z,15.46
2022-10-02T13:27:42.355Z,15.46
2022-10-02T13:30:16.285Z,15.53
2022-10-02T13:33:06.170Z,15.62
2022-10-02T13:35:55.955Z,15.68
2022-10-02T13:38:24.820Z,15.73
2022-10-02T13:41:24.960Z,15.78
2022-10-02T13:44:07.772Z,15.71
2022-10-02T13:47:00.828Z,15.67
2022-10-02T13:49:47.828Z,15.53
2022-10-02T13:53:04.442Z,15.52
2022-10-02T13:55:41.360Z,15.52
2022-10-02T13:58:12.779Z,15.44
2022-10-02T14:01:08.663Z,15.33
2022-10-02T14:03:55.657Z,15.19
2022-10-02T14:06:34.964Z,15.06
2022-10-02T14:09:23.646Z,14.92
2022-10-02T14:12:13.610Z,14.84
2022-10-02T14:15:00.550Z,14.76
2022-10-02T14:17:51.429Z,14.71
2022-10-02T14:20:29.029Z,14.63
2022-10-02T14:23:32.391Z,14.55
2022-10-02T14:26:28.082Z,14.45
2022-10-02T14:29:20.277Z,14.34
2022-10-02T14:32:21.215Z,14.26
2022-10-02T14:35:20.095Z,14.21
2022-10-02T14:38:12.396Z,14.15
2022-10-02T14:40:53.998Z,14.10
2022-10-02T14:43:46.087Z,14.05
2022-10-02T14:46:20.930Z,13.99
2022-10-02T14:49:07.919Z,13.95
2022-10-02T14:52:04.017Z,13.91
2022-10-02T14:54:38.098Z,13.87
2022-10-02T14:57:28.577Z,13.81
2022-10-02T15:00:03.406Z,13.75
2022-10-02T15:03:02.232Z,13.67
2022-10-02T15:05:59.766Z,13.54
2022-10-02T15:08:34.298Z,13.40
2022-10-02T15:11:05.311Z,13.31
2022-10-02T15:13:58.136Z,13.21
2022-10-02T15:16:53.644Z,13.13
2022-10-02T15:19:31.370Z,13.07
2022-10-02T15:22:07.371Z,12.99
2022-10-02T15:24:45.824Z,12.90
2022-10-02T15:27:22.931Z,12.81
2022-10-02T15:30:16.939Z,12.71
2022-10-02T15:33:07.446Z,12.66
2022-10-02T15:36:15.475Z,12.61
2022-10-02T15:39:20.761Z,12.63
2022-10-02T15:42:04.760Z,12.70
2022-10-02T15:44:57.837Z,12.73
2022-10-02T15:47:40.902Z,12.75
2022-10-02T15:50:32.761Z,12.72
2022-10-02T15:53:04.023Z,12.69
2022-10-02T15:55:38.986Z,12.60
2022-10-02T15:58:07.142Z,12.53
2022-10-02T16:01:02.900Z,12.41
2022-10-02T16:03:50.915Z,12.28
2022-10-02T16:06:50.817Z,12.21
2022-10-02T16:09:34.861Z,12.12
2022-10-02T16:12:12.012Z,12.04
2022-10-02T16:15:03.219Z,11.95
2022-10-02T16:17:41.452Z,11.90
2022-10-02T16:20:19.045Z,11.86
2022-10-02T16:23:14.271Z,11.81
2022-10-02T16:26:35.284Z,11.85
2022-10-02T16:29:14.426Z,11.91
2022-10-02T16:31:52.065Z,11.93
2022-10-02T16:34:39.249Z,11.88
2022-10-02T16:37:34.284Z,11.84
2022-10-02T16:40:28.516Z,11.86
2022-10-02T16:43:57.929Z,11.86
2022-10-02T16:51:44.575Z,11.77
2022-10-02T16:54:57.789Z,11.69
2022-10-02T16:58:28.735Z,11.70
2022-10-02T17:01:43.379Z,11.70
2022-10-02T17:05:11.742Z,11.71
2022-10-02T17:08:02.002Z,11.75
2022-10-02T17:10:33.918Z,11.76
2022-10-02T17:13:29.334Z,11.72
2022-10-02T17:16:11.954Z,11.68
2022-10-02T17:18:54.798Z,11.66
2022-10-02T17:21:45.448Z,11.60
2022-10-02T17:24:51.704Z,11.53
2022-10-02T17:27:35.502Z,11.49
2022-10-02T17:30:27.118Z,11.44
2022-10-02T17:33:20.268Z,11.39
2022-10-02T17:35:54.367Z,11.33
2022-10-02T17:38:25.748Z,11.26
2022-10-02T17:41:09.110Z,11.24
2022-10-02T17:43:53.488Z,11.16
2022-10-02T17:46:42.811Z,11.11
2022-10-02T17:49:23.037Z,11.05
2022-10-02T17:52:34.579Z,11.02
2022-10-02T17:55:40.205Z,10.95
2022-10-02T17:58:32.776Z,10.95
2022-10-02T18:01:07.510Z,10.97
2022-10-02T18:03:53.758Z,10.95
2022-10-02T18:06:38.292Z,10.95
2022-10-02T18:09:24.617Z,10.97
2022-10-02T18:12:01.799Z,10.98
2022-10-02T18:14:48.622Z,10.99
2022-10-02T18:17:38.470Z,10.98
2022-10-02T18:20:34.268Z,10.95
2022-10-02T18:23:20.775Z,10.93
2022-10-02T18:26:14.345Z,10.90
2022-10-02T18:29:03.708Z,10.85
2022-10-02T18:31:57.977Z,10.78
2022-10-02T18:34:29.265Z,10.74
2022-10-02T18:37:20.268Z,10.72
2022-10-02T18:40:03.543Z,10.67
2022-10-02T18:43:08.097Z,10.59
2022-10-02T18:45:57.770Z,10.51
2022-10-02T18:48:44.129Z,10.50
2022-10-02T18:51:31.950Z,10.49
2022-10-02T18:54:19.129Z,10.49
2022-10-02T18:57:13.107Z,10.44
2022-10-02T18:59:59.386Z,10.40
2022-10-02T19:02:53.820Z,10.36
2022-10-02T19:05:31.125Z,10.28
2022-10-02T19:08:05.102Z,10.21
2022-10-02T19:10:33.458Z,10.13
2022-10-02T19:13:23.449Z,10.09
2022-10-02T19:15:54.430Z,10.04
2022-10-02T19:18:27.805Z,10.01
2022-10-02T19:20:55.942Z,9.99
2022-10-02T19:23:56.657Z,9.94
2022-10-02T19:26:28.032Z,9.93
2022-10-02T19:29:25.434Z,9.94
2022-10-02T19:31:57.803Z,9.94
2022-10-02T19:34:31.798Z,9.91
2022-10-02T19:37:05.171Z,9.89
2022-10-02T19:39:41.571Z,9.84
2022-10-02T19:42:17.019Z,9.77
2022-10-02T19:44:49.849Z,9.77
2022-10-02T19:47:32.523Z,9.77
2022-10-02T19:50:04.039Z,9.74
2022-10-02T19:52:47.814Z,9.74
2022-10-02T19:55:21.943Z,9.71
2022-10-02T19:57:54.385Z,9.68
2022-10-02T20:00:22.986Z,9.67
2022-10-02T20:02:56.124Z,9.63
2022-10-02T20:05:27.482Z,9.62
2022-10-02T20:08:07.017Z,9.59
2022-10-02T20:10:40.103Z,9.58
2022-10-02T20:13:37.260Z,9.58
2022-10-02T20:16:41.372Z,9.58
2022-10-02T20:19:31.927Z,9.59
2022-10-02T20:22:07.803Z,9.59
2022-10-02T20:24:58.719Z,9.59
2022-10-02T20:27:48.420Z,9.60
2022-10-02T20:30:19.535Z,9.59
2022-10-02T20:32:54.502Z,9.58
2022-10-02T20:35:34.881Z,9.56
2022-10-02T20:38:31.618Z,9.52
2022-10-02T20:41:07.243Z,9.49
2022-10-02T20:43:49.633Z,9.49
2022-10-02T20:46:55.021Z,9.54
2022-10-02T20:49:40.540Z,9.57
2022-10-02T20:52:49.338Z,9.59
2022-10-02T20:55:23.553Z,9.59
2022-10-02T20:58:22.614Z,9.59
2022-10-02T21:01:16.379Z,9.61
2022-10-02T21:04:26.539Z,9.61
2022-10-02T21:07:19.539Z,9.62
2022-10-02T21:10:12.475Z,9.63
2022-10-02T21:13:24.391Z,9.65
2022-10-02T21:16:25.388Z,9.65
2022-10-02T21:19:05.646Z,9.63
2022-10-02T21:22:05.453Z,9.64
2022-10-02T21:24:36.314Z,9.62
2022-10-02T21:27:18.607Z,9.57
2022-10-02T21:30:04.158Z,9.51
2022-10-02T21:32:49.415Z,9.46
2022-10-02T21:35:42.597Z,9.44
2022-10-02T21:38:32.387Z,9.43
2022-10-02T21:41:19.706Z,9.44
2022-10-02T21:44:28.744Z,9.44
2022-10-02T21:47:21.375Z,9.44
2022-10-02T21:50:10.817Z,9.41
2022-10-02T21:53:11.416Z,9.39
2022-10-02T21:56:08.795Z,9.39
2022-10-02T21:58:52.098Z,9.39
2022-10-02T22:02:07.630Z,9.38
2022-10-02T22:04:55.395Z,9.38
2022-10-02T22:07:41.254Z,9.37
2022-10-02T22:10:15.249Z,9.38
2022-10-02T22:13:11.322Z,9.39
2022-10-02T22:15:51.109Z,9.41
2022-10-02T22:18:25.301Z,9.42
2022-10-02T22:21:09.173Z,9.40
2022-10-02T22:24:06.628Z,9.39
2022-10-02T22:26:53.327Z,9.41
2022-10-02T22:29:41.497Z,9.41
2022-10-02T22:33:06.263Z,9.41
2022-10-02T22:35:53.119Z,9.45
2022-10-02T22:38:38.248Z,9.48
2022-10-02T22:41:17.955Z,9.46
2022-10-02T22:44:10.658Z,9.46
2022-10-02T22:47:04.699Z,9.48
2022-10-02T22:49:38.973Z,9.49
2022-10-02T22:52:28.999Z,9.50
2022-10-02T22:55:24.479Z,9.50
2022-10-02T22:57:58.695Z,9.48
2022-10-02T23:00:34.149Z,9.46
2022-10-02T23:03:15.159Z,9.42
2022-10-02T23:06:31.566Z,9.40
2022-10-02T23:09:31.634Z,9.41
2022-10-02T23:12:15.401Z,9.42
2022-10-02T23:14:49.679Z,9.43
2022-10-02T23:17:50.660Z,9.42
2022-10-02T23:20:29.067Z,9.40
2022-10-02T23:23:08.397Z,9.39
2022-10-02T23:25:47.188Z,9.39
2022-10-02T23:28:15.727Z,9.40
2022-10-02T23:30:49.003Z,9.38
2022-10-02T23:33:37.331Z,9.38
2022-10-02T23:36:19.927Z,9.37
2022-10-02T23:38:59.505Z,9.38
2022-10-02T23:41:40.767Z,9.37
2022-10-02T23:44:32.303Z,9.38
2022-10-02T23:47:25.340Z,9.35
2022-10-02T23:49:54.777Z,9.36
2022-10-02T23:52:33.378Z,9.37
2022-10-02T23:55:14.289Z,9.36
2022-10-02T23:58:00.189Z,9.37
